Terminal Aerodrome Forecast
Issued by NWS

Home | Current Version | Previous Version | Text Only | Print | Product List | Glossary On
Versions: 1 2 3 4 5 6 7 8 9 10 11 12 13 14 15 16 17 18 19 20 21 22
000
FTUS41 KALY 310905 AAA
TAFPSF
TAF AMD
KPSF 310905Z 3109/0106 00000KT P6SM -SHRA SCT008 OVC040
      TEMPO 3109/3112 4SM -SHRA BR OVC008
     FM311200 VRB03KT 2SM -SHRA BR OVC008
     FM311700 10005KT 4SM -SHRA BR SCT008 OVC011
     FM010000 10004KT 3SM -SHRA BR OVC008=

USA.gov is the U.S. government's official web portal to all federal, state and local government web resources and services.